METAR Data
IDs: Format: Raw Decoded Include TAF

Data at: 0929 UTC 22 Oct 2018

PANV 220256Z AUTO 04012KT 10SM -RA SCT042 BKN050 OVC110 03/M01 A2929 RMK AO2 SLP940 P0000 60000 T00281006 53003
PANV 212356Z AUTO 04009KT 10SM OVC065 03/M01 A2928 RMK AO2 SLP937 T00331011 10033 20006 53002
PANV 211856Z AUTO 04009G15KT 10SM OVC012 01/M02 A2928 RMK AO2 SLP935 T00061017 FZRANO
PANV 211656Z AUTO 03011KT 10SM OVC010 01/M01 A2927 RMK AO2 SLP932 T00061011 FZRANO
PANV 211256Z AUTO 03016G22KT 10SM OVC012 02/M01 A2932 RMK AO2 SLP951 T00171006 FZRANO
PANV 211156Z AUTO 03013G17KT 10SM OVC010 02/M01 A2934 RMK AO2 SLP958 T00171006 10022 20011 58019 FZRANO
PANV 210908Z AUTO 03017G22KT 10SM BKN016 01/M01 A2939 RMK AO2 FZRANO
PANV 210156Z AUTO 05010G15KT 10SM CLR 05/01 A2950 RMK AO2 SLP010 T00500006
PANV 202356Z AUTO 04010KT 10SM CLR 05/00 A2950 RMK AO2 SLP012 T00500000 10050 21006 58007
PANV 202256Z AUTO 04009KT 10SM CLR 04/00 A2952 RMK AO2 SLP019 T00440000